Time;durP1;ratioP1;P1;durP2;ratioP2;P2;SDS_P1;SDS_P2;PMS_P1;PMS_P2;Temp;Humidity;BMP_temperature;BMP_pressure;BME280_temperature;BME280_humidity;BME280_pressure;Samples;Min_cycle;Max_cycle;Signal;HPM_P1;HPM_P2
2023/05/20 00:02:05;;;;;;;6.73;5.03;;;11.30;99.90;;;;;;5075648;28;20417;-49
2023/05/20 00:04:31;;;;;;;5.30;4.70;;;11.30;99.90;;;;;;5075731;28;20585;-46
2023/05/20 00:06:56;;;;;;;7.23;5.40;;;11.30;99.90;;;;;;5076718;28;20257;-48
2023/05/20 00:09:22;;;;;;;9.23;6.10;;;11.30;99.90;;;;;;5075566;28;20185;-45
2023/05/20 00:11:48;;;;;;;7.03;6.33;;;11.30;1.00;;;;;;5077410;28;20297;-47
2023/05/20 00:14:13;;;;;;;6.80;6.10;;;11.30;1.00;;;;;;5076941;28;20201;-45
2023/05/20 00:16:39;;;;;;;10.23;7.57;;;11.30;33.90;;;;;;5077221;28;20173;-47
2023/05/20 00:19:04;;;;;;;10.00;7.10;;;11.30;18.30;;;;;;5079336;28;20232;-47
2023/05/20 00:21:30;;;;;;;8.50;7.70;;;11.30;99.90;;;;;;5079374;28;20188;-48
2023/05/20 00:23:57;;;;;;;10.80;8.83;;;11.30;99.90;;;;;;5078926;28;20181;-44
2023/05/20 00:26:23;;;;;;;10.47;8.87;;;11.30;99.90;;;;;;5079713;28;20630;-45
2023/05/20 00:28:48;;;;;;;9.43;7.60;;;11.20;1.00;;;;;;5078019;28;20565;-44
2023/05/20 00:31:14;;;;;;;6.80;6.20;;;11.30;1.00;;;;;;5078850;28;20191;-45
2023/05/20 00:33:40;;;;;;;10.30;6.27;;;11.30;1.00;;;;;;5078289;28;20196;-46
2023/05/20 00:36:05;;;;;;;6.77;5.93;;;11.30;99.90;;;;;;5079088;28;20434;-47
2023/05/20 00:38:32;;;;;;;5.67;5.20;;;11.30;99.90;;;;;;5078891;28;20181;-45
2023/05/20 00:40:57;;;;;;;6.00;5.10;;;11.30;99.90;;;;;;5079268;28;20557;-45
2023/05/20 00:43:25;;;;;;;5.07;4.67;;;11.30;99.90;;;;;;5077664;28;20435;-44
2023/05/20 00:45:52;;;;;;;6.13;5.53;;;11.30;99.90;;;;;;5078308;28;20169;-46
2023/05/20 00:48:17;;;;;;;6.20;5.53;;;11.40;99.90;;;;;;5078388;28;20426;-47
2023/05/20 00:50:43;;;;;;;7.43;5.57;;;11.40;99.90;;;;;;5078821;28;20412;-46
2023/05/20 00:53:09;;;;;;;5.73;5.20;;;11.40;99.90;;;;;;5077674;28;20181;-44
2023/05/20 00:55:35;;;;;;;5.80;5.30;;;11.40;99.90;;;;;;5076816;28;20212;-46
2023/05/20 00:58:00;;;;;;;7.30;6.60;;;11.50;99.90;;;;;;5076400;28;20709;-45
2023/05/20 01:00:26;;;;;;;9.10;5.60;;;11.50;99.90;;;;;;5077186;28;20250;-46
2023/05/20 01:02:53;;;;;;;6.77;5.10;;;11.50;99.90;;;;;;5077139;28;20188;-46
2023/05/20 01:05:19;;;;;;;6.30;5.80;;;11.60;99.90;;;;;;5091914;28;20550;-47
2023/05/20 01:07:45;;;;;;;6.07;5.47;;;11.60;99.90;;;;;;5097496;28;21147;-46
2023/05/20 01:10:10;;;;;;;7.17;6.50;;;11.60;99.90;;;;;;5095789;28;20511;-46
2023/05/20 01:12:39;;;;;;;6.30;5.70;;;11.60;99.90;;;;;;5097251;28;20176;-48
2023/05/20 01:15:08;;;;;;;6.97;6.27;;;11.60;99.90;;;;;;5097967;28;20208;-46
2023/05/20 01:17:37;;;;;;;7.63;5.83;;;11.60;99.90;;;;;;5097600;28;20423;-45
2023/05/20 01:20:06;;;;;;;5.90;5.40;;;11.60;99.90;;;;;;5096733;28;20913;-45
2023/05/20 01:22:31;;;;;;;7.17;6.47;;;11.60;99.90;;;;;;5097551;28;20418;-45
2023/05/20 01:24:58;;;;;;;5.93;5.30;;;11.60;99.90;;;;;;5098775;28;20665;-48
2023/05/20 01:27:24;;;;;;;6.50;5.90;;;11.60;99.90;;;;;;5098783;28;20323;-46
2023/05/20 01:29:51;;;;;;;7.10;6.50;;;11.60;1.00;;;;;;5098383;28;20492;-45
2023/05/20 01:32:20;;;;;;;6.77;6.07;;;11.60;1.00;;;;;;5097158;28;20176;-46
2023/05/20 01:34:49;;;;;;;7.37;6.10;;;11.60;1.00;;;;;;5095722;28;20504;-47
2023/05/20 01:37:16;;;;;;;6.73;6.07;;;11.60;1.00;;;;;;5096592;28;20415;-46
2023/05/20 01:39:42;;;;;;;6.70;6.10;;;11.60;1.00;;;;;;5095522;28;20422;-46
2023/05/20 01:42:09;;;;;;;7.00;6.40;;;11.60;1.00;;;;;;5095253;28;20661;-47
2023/05/20 01:44:35;;;;;;;6.47;5.90;;;11.60;1.00;;;;;;5096161;28;20410;-47
2023/05/20 01:47:00;;;;;;;6.63;5.37;;;11.60;1.00;;;;;;5094426;28;20422;-47
2023/05/20 01:49:26;;;;;;;5.87;5.37;;;11.60;1.00;;;;;;5096469;28;20430;-46
2023/05/20 01:51:52;;;;;;;6.13;5.53;;;11.60;1.00;;;;;;5096486;28;20211;-46
2023/05/20 01:54:18;;;;;;;7.47;6.87;;;11.60;1.00;;;;;;5095267;28;20219;-46
2023/05/20 01:56:45;;;;;;;6.17;5.67;;;11.60;1.00;;;;;;5097373;28;20175;-47
2023/05/20 01:59:11;;;;;;;6.87;6.20;;;11.60;1.00;;;;;;5096800;28;20179;-45
2023/05/20 02:01:36;;;;;;;7.70;7.07;;;11.60;1.00;;;;;;5097152;28;20406;-47
2023/05/20 02:04:02;;;;;;;9.67;6.70;;;11.60;1.00;;;;;;5096632;28;20250;-45
2023/05/20 02:06:28;;;;;;;7.27;6.57;;;11.60;1.00;;;;;;5097353;28;20450;-46
2023/05/20 02:08:53;;;;;;;6.87;6.00;;;11.60;1.00;;;;;;5097435;28;20284;-46
2023/05/20 02:11:20;;;;;;;6.43;5.80;;;11.60;1.00;;;;;;5097350;28;20188;-45
2023/05/20 02:13:45;;;;;;;7.60;6.90;;;11.60;1.00;;;;;;5097923;28;20608;-46
2023/05/20 02:16:11;;;;;;;7.77;6.40;;;11.60;1.00;;;;;;5097605;28;20465;-47
2023/05/20 02:21:58;;;;;;;7.07;6.20;;;11.60;5.70;;;;;;5096453;28;20234;-45
2023/05/20 02:24:24;;;;;;;6.63;6.10;;;11.60;17.50;;;;;;5095684;28;20434;-46
2023/05/20 02:26:52;;;;;;;7.73;6.30;;;11.60;56.70;;;;;;5096842;28;20179;-46
2023/05/20 02:29:20;;;;;;;6.57;5.90;;;11.60;99.90;;;;;;5097042;28;20247;-46
2023/05/20 02:31:46;;;;;;;8.17;6.77;;;11.60;99.90;;;;;;5097244;28;20646;-46
2023/05/20 02:34:12;;;;;;;7.50;6.40;;;11.60;99.90;;;;;;5096874;28;20493;-45
2023/05/20 02:36:38;;;;;;;7.17;6.47;;;11.50;99.90;;;;;;5097248;28;20456;-46
2023/05/20 02:39:03;;;;;;;6.97;6.37;;;11.60;99.90;;;;;;5097212;28;20180;-46
2023/05/20 02:41:29;;;;;;;7.03;6.43;;;11.50;99.90;;;;;;5097456;28;20199;-45
2023/05/20 02:43:54;;;;;;;8.07;7.37;;;11.60;99.90;;;;;;5096862;28;20184;-46
2023/05/20 02:46:20;;;;;;;6.73;6.13;;;11.60;99.90;;;;;;5096933;28;20578;-47
2023/05/20 02:48:45;;;;;;;7.00;6.33;;;11.60;99.90;;;;;;5096354;28;20176;-46
2023/05/20 02:51:11;;;;;;;7.07;6.37;;;11.60;99.90;;;;;;5096666;28;20183;-46
2023/05/20 02:53:37;;;;;;;6.73;6.13;;;11.50;99.90;;;;;;5095215;28;20188;-45
2023/05/20 02:56:03;;;;;;;7.70;6.90;;;11.60;99.90;;;;;;5095472;28;20172;-46
2023/05/20 02:58:29;;;;;;;6.63;6.07;;;11.60;99.90;;;;;;5095187;28;20195;-45
2023/05/20 03:00:56;;;;;;;6.97;6.37;;;11.50;99.90;;;;;;5095591;28;20507;-44
2023/05/20 03:03:25;;;;;;;8.30;7.50;;;11.50;99.90;;;;;;5095148;28;20180;-47
2023/05/20 03:05:51;;;;;;;8.27;7.47;;;11.50;99.90;;;;;;5093733;28;20438;-47
2023/05/20 03:08:19;;;;;;;7.20;6.57;;;11.40;99.90;;;;;;5094772;28;20519;-45
2023/05/20 03:10:44;;;;;;;7.40;6.63;;;11.40;99.90;;;;;;5095044;28;20184;-47
2023/05/20 03:13:10;;;;;;;8.30;7.50;;;11.40;99.90;;;;;;5094567;28;20713;-47
2023/05/20 03:15:39;;;;;;;7.27;6.70;;;11.30;99.90;;;;;;5095502;28;20236;-46
2023/05/20 03:18:05;;;;;;;7.63;7.03;;;11.30;99.90;;;;;;5095515;28;20183;-44
2023/05/20 03:20:31;;;;;;;7.13;6.53;;;11.30;1.00;;;;;;5095825;28;20423;-44
2023/05/20 03:22:57;;;;;;;7.77;6.97;;;11.30;1.00;;;;;;5095025;28;20441;-47
2023/05/20 03:25:23;;;;;;;7.80;7.13;;;11.30;1.00;;;;;;5095079;28;20442;-46
2023/05/20 03:27:49;;;;;;;7.97;7.23;;;11.30;1.00;;;;;;5095614;28;20900;-46
2023/05/20 03:30:15;;;;;;;8.87;8.10;;;11.20;1.00;;;;;;5095947;28;20426;-45
2023/05/20 03:32:41;;;;;;;7.17;6.50;;;11.20;1.00;;;;;;5096007;28;20592;-46
2023/05/20 03:35:08;;;;;;;7.80;7.10;;;11.10;1.00;;;;;;5094329;28;20573;-45
2023/05/20 03:37:34;;;;;;;9.57;8.40;;;11.10;1.00;;;;;;5095609;28;20484;-46
2023/05/20 03:39:59;;;;;;;7.30;6.60;;;11.10;1.00;;;;;;5095970;28;20708;-45
2023/05/20 03:42:25;;;;;;;7.87;7.17;;;11.10;1.00;;;;;;5094059;28;20172;-48
2023/05/20 03:44:51;;;;;;;8.03;7.33;;;11.00;1.00;;;;;;5093704;28;20191;-46
2023/05/20 03:47:16;;;;;;;9.30;8.10;;;11.10;1.00;;;;;;5095330;28;20237;-48
2023/05/20 03:49:42;;;;;;;8.97;8.17;;;11.00;1.00;;;;;;5095092;28;20556;-45
2023/05/20 03:52:07;;;;;;;7.60;6.90;;;11.00;1.80;;;;;;5094566;28;20573;-45
2023/05/20 03:54:35;;;;;;;8.43;7.20;;;11.00;5.30;;;;;;5094387;28;20772;-48
2023/05/20 03:57:01;;;;;;;7.97;7.27;;;11.00;15.00;;;;;;5094599;28;20191;-46
2023/05/20 03:59:27;;;;;;;7.23;6.70;;;11.00;22.90;;;;;;5095506;28;20414;-45
2023/05/20 04:01:53;;;;;;;8.50;7.60;;;11.10;33.20;;;;;;5095688;28;20740;-45
2023/05/20 04:04:19;;;;;;;8.03;7.33;;;11.10;23.10;;;;;;5095529;28;20434;-47
2023/05/20 04:06:45;;;;;;;8.00;7.20;;;11.10;29.70;;;;;;5094195;28;20658;-44
2023/05/20 04:09:10;;;;;;;8.77;7.97;;;11.10;23.50;;;;;;5096071;28;20271;-47
2023/05/20 04:11:36;;;;;;;8.30;7.30;;;11.10;43.10;;;;;;5096170;28;20503;-47
2023/05/20 04:14:01;;;;;;;8.60;7.80;;;11.10;33.50;;;;;;5095210;28;20219;-46
2023/05/20 04:16:28;;;;;;;8.67;7.67;;;11.20;57.80;;;;;;5096019;28;20180;-47
2023/05/20 04:18:54;;;;;;;8.50;7.47;;;11.20;61.80;;;;;;5095850;28;20516;-46
2023/05/20 04:21:20;;;;;;;9.10;8.30;;;11.20;79.10;;;;;;5093697;28;20903;-46
2023/05/20 04:23:45;;;;;;;8.77;7.90;;;11.20;81.90;;;;;;5094566;28;20437;-45
2023/05/20 04:26:11;;;;;;;8.20;7.50;;;11.30;80.00;;;;;;5094644;28;20222;-46
2023/05/20 04:28:37;;;;;;;8.73;8.03;;;11.30;50.10;;;;;;5095766;28;20323;-46
2023/05/20 04:31:03;;;;;;;9.13;8.33;;;11.30;31.80;;;;;;5095857;28;20537;-46
2023/05/20 04:33:31;;;;;;;8.07;7.40;;;11.40;36.50;;;;;;5095173;28;20430;-45
2023/05/20 04:35:57;;;;;;;9.00;8.10;;;11.40;21.30;;;;;;5095148;28;20777;-45
2023/05/20 04:38:29;;;;;;;8.80;8.00;;;11.50;15.60;;;;;;5094650;28;20757;-45
2023/05/20 04:40:58;;;;;;;8.63;7.73;;;11.50;17.20;;;;;;5095004;28;20406;-45
2023/05/20 04:43:25;;;;;;;8.10;7.30;;;11.60;1.90;;;;;;5095877;28;20428;-46
2023/05/20 04:45:52;;;;;;;7.43;6.73;;;11.60;1.00;;;;;;5098005;28;20418;-46
2023/05/20 04:48:18;;;;;;;7.30;6.70;;;11.70;1.00;;;;;;5098666;28;20434;-46
2023/05/20 04:50:44;;;;;;;7.87;6.97;;;11.80;1.00;;;;;;5099177;28;20516;-45
2023/05/20 04:53:10;;;;;;;8.07;7.37;;;11.80;1.00;;;;;;5099539;28;20533;-46
2023/05/20 04:55:36;;;;;;;8.03;7.20;;;11.90;1.00;;;;;;5098688;28;20470;-48
2023/05/20 04:58:02;;;;;;;8.20;7.50;;;12.00;1.00;;;;;;5098967;28;20419;-45
2023/05/20 05:00:28;;;;;;;8.20;7.40;;;12.00;1.00;;;;;;5098364;28;20187;-45
2023/05/20 05:02:54;;;;;;;8.97;7.47;;;12.10;1.00;;;;;;5096740;28;20422;-47
2023/05/20 05:05:19;;;;;;;8.07;7.37;;;12.30;1.00;;;;;;5096991;28;20616;-46
2023/05/20 05:07:45;;;;;;;7.63;7.00;;;12.30;1.00;;;;;;5097818;28;20264;-46
2023/05/20 05:10:11;;;;;;;7.13;6.43;;;12.40;1.00;;;;;;5096334;28;20585;-46
2023/05/20 05:12:36;;;;;;;8.17;7.40;;;12.50;99.90;;;;;;5097045;28;20246;-46
2023/05/20 05:15:02;;;;;;;7.77;7.00;;;12.60;99.90;;;;;;5096100;28;20564;-47
2023/05/20 05:17:28;;;;;;;9.57;7.40;;;12.60;99.90;;;;;;5096234;28;20192;-47
2023/05/20 05:19:53;;;;;;;8.13;7.33;;;12.80;99.90;;;;;;5097657;28;20180;-47
2023/05/20 05:22:19;;;;;;;6.70;6.20;;;12.90;99.90;;;;;;5096755;28;20626;-46
2023/05/20 05:24:45;;;;;;;7.37;6.77;;;13.00;99.90;;;;;;5095722;28;20195;-46
2023/05/20 05:27:10;;;;;;;9.60;7.90;;;13.10;99.90;;;;;;5092264;28;20261;-45
2023/05/20 05:29:36;;;;;;;9.40;7.23;;;13.30;1.00;;;;;;5094993;28;20240;-47
2023/05/20 05:32:01;;;;;;;6.93;6.43;;;13.40;1.00;;;;;;5094951;28;20678;-46
2023/05/20 05:34:27;;;;;;;7.40;6.63;;;13.40;1.00;;;;;;5093870;28;20438;-49
2023/05/20 05:36:52;;;;;;;9.10;6.70;;;13.50;99.90;;;;;;5094393;28;20562;-46
2023/05/20 05:39:18;;;;;;;7.10;6.40;;;13.60;99.90;;;;;;5095448;28;20191;-48
2023/05/20 05:41:44;;;;;;;6.97;6.33;;;13.70;1.00;;;;;;5095143;28;20181;-48
2023/05/20 05:44:09;;;;;;;8.27;6.73;;;13.90;99.90;;;;;;5095983;28;20185;-46
2023/05/20 05:46:35;;;;;;;7.53;6.93;;;13.90;1.00;;;;;;5095538;28;20196;-48
2023/05/20 05:49:00;;;;;;;7.20;6.37;;;14.10;1.00;;;;;;5095630;28;20192;-46
2023/05/20 05:51:27;;;;;;;7.20;6.60;;;14.30;99.90;;;;;;5096424;28;20196;-46
2023/05/20 05:53:53;;;;;;;7.30;6.70;;;14.50;1.00;;;;;;5096668;28;20390;-47
2023/05/20 05:56:20;;;;;;;7.33;6.73;;;14.60;99.90;;;;;;5094584;28;20425;-48
2023/05/20 05:58:47;;;;;;;8.97;6.87;;;14.80;99.90;;;;;;5095583;28;20466;-46
2023/05/20 06:01:16;;;;;;;7.37;6.70;;;14.90;1.00;;;;;;5093838;28;20712;-47
2023/05/20 06:03:41;;;;;;;9.20;6.80;;;15.10;1.00;;;;;;5093967;28;20812;-47
2023/05/20 06:06:07;;;;;;;7.97;7.27;;;15.20;1.00;;;;;;5094537;28;20479;-45
2023/05/20 06:08:32;;;;;;;7.87;7.17;;;15.30;1.00;;;;;;5095174;28;20658;-47
2023/05/20 06:10:58;;;;;;;7.47;6.77;;;15.40;99.90;;;;;;5093101;28;20215;-46
2023/05/20 06:13:23;;;;;;;6.90;6.20;;;15.40;99.90;;;;;;5092270;28;20168;-47
2023/05/20 06:15:49;;;;;;;7.13;6.43;;;15.50;46.20;;;;;;5091429;28;20212;-47
2023/05/20 06:18:15;;;;;;;7.33;6.63;;;15.60;8.00;;;;;;5090345;28;20192;-47
2023/05/20 06:20:41;;;;;;;8.70;7.47;;;15.70;1.00;;;;;;5089509;28;20820;-46
2023/05/20 06:23:06;;;;;;;7.90;7.20;;;15.70;17.40;;;;;;5090042;28;20180;-49
2023/05/20 06:25:32;;;;;;;6.40;5.77;;;15.90;1.00;;;;;;5091193;28;20223;-45
2023/05/20 06:27:57;;;;;;;8.70;7.80;;;16.00;99.90;;;;;;5093625;28;20244;-45
2023/05/20 06:30:23;;;;;;;6.90;6.30;;;16.00;99.90;;;;;;5093551;28;20235;-45
2023/05/20 06:32:49;;;;;;;8.03;7.23;;;16.00;99.90;;;;;;5095238;28;20252;-46
2023/05/20 06:35:16;;;;;;;6.20;5.70;;;16.10;97.90;;;;;;5096243;28;20717;-46
2023/05/20 06:37:41;;;;;;;7.43;6.83;;;16.20;99.90;;;;;;5094777;28;20610;-46
2023/05/20 06:40:08;;;;;;;8.30;7.50;;;16.10;99.90;;;;;;5093946;28;20418;-45
2023/05/20 06:42:33;;;;;;;9.80;6.43;;;16.40;54.10;;;;;;5094348;28;20189;-47
2023/05/20 06:44:59;;;;;;;7.83;7.13;;;16.50;1.00;;;;;;5093748;28;20413;-45
2023/05/20 06:47:25;;;;;;;7.17;6.57;;;16.60;1.00;;;;;;5094861;28;20244;-46
2023/05/20 06:49:50;;;;;;;7.30;6.60;;;16.50;1.00;;;;;;5094670;28;20169;-44
2023/05/20 06:52:16;;;;;;;7.90;7.20;;;16.70;1.00;;;;;;5092920;28;20177;-45
2023/05/20 06:54:42;;;;;;;8.10;7.40;;;17.10;99.90;;;;;;5093478;28;20205;-48
2023/05/20 06:57:08;;;;;;;10.60;7.87;;;17.20;99.90;;;;;;5093383;28;20294;-47
2023/05/20 06:59:38;;;;;;;7.57;6.97;;;17.30;39.10;;;;;;5093558;28;20413;-47
2023/05/20 07:02:03;;;;;;;7.60;6.87;;;17.50;63.80;;;;;;5093533;28;20406;-48
2023/05/20 07:04:29;;;;;;;7.03;6.43;;;17.70;1.00;;;;;;5093695;28;20696;-47
2023/05/20 07:06:55;;;;;;;7.97;7.27;;;17.90;1.00;;;;;;5092017;28;20421;-47
2023/05/20 07:09:20;;;;;;;7.93;6.90;;;18.10;1.00;;;;;;5094355;28;20176;-48
2023/05/20 07:11:46;;;;;;;8.77;7.87;;;18.30;1.00;;;;;;5095460;28;20461;-45
2023/05/20 07:14:12;;;;;;;8.40;7.57;;;18.30;1.00;;;;;;5094611;28;20458;-47
2023/05/20 07:16:37;;;;;;;7.47;6.80;;;18.30;1.00;;;;;;5094091;28;20197;-48
2023/05/20 07:19:03;;;;;;;10.33;8.00;;;18.50;1.00;;;;;;5094067;28;20562;-49
2023/05/20 07:21:29;;;;;;;7.90;7.20;;;18.60;99.90;;;;;;5092944;28;20171;-47
2023/05/20 07:23:54;;;;;;;7.67;7.00;;;18.80;99.90;;;;;;5093219;28;20257;-46
2023/05/20 07:26:20;;;;;;;8.07;7.37;;;18.80;99.90;;;;;;5095078;28;20559;-45
2023/05/20 07:28:46;;;;;;;9.03;8.23;;;18.80;99.90;;;;;;5093108;28;20224;-46
2023/05/20 07:31:12;;;;;;;8.47;7.70;;;18.80;99.90;;;;;;5091822;28;20178;-48
2023/05/20 07:33:38;;;;;;;8.80;8.00;;;18.70;99.90;;;;;;5091903;28;20271;-47
2023/05/20 07:36:04;;;;;;;9.30;8.47;;;18.60;99.90;;;;;;5094333;28;20480;-47
2023/05/20 07:38:29;;;;;;;8.77;8.07;;;18.40;99.90;;;;;;5093920;28;20434;-48
2023/05/20 07:40:55;;;;;;;7.93;7.17;;;18.40;99.90;;;;;;5094124;28;20958;-46
2023/05/20 07:43:21;;;;;;;8.67;7.80;;;18.50;99.90;;;;;;5094948;28;20191;-47
2023/05/20 07:45:46;;;;;;;7.90;7.20;;;19.00;99.90;;;;;;5093763;28;20200;-47
2023/05/20 07:48:12;;;;;;;7.33;6.73;;;19.20;99.90;;;;;;5095543;28;20176;-47
2023/05/20 07:50:38;;;;;;;10.00;9.10;;;19.30;99.90;;;;;;5094798;28;20184;-47
2023/05/20 07:53:04;;;;;;;9.20;8.30;;;19.40;99.90;;;;;;5093784;28;20184;-46
2023/05/20 07:55:33;;;;;;;8.40;7.60;;;19.50;99.90;;;;;;5095376;28;20486;-46
2023/05/20 07:57:58;;;;;;;8.37;7.57;;;19.60;99.90;;;;;;5092479;28;20429;-48
2023/05/20 08:00:24;;;;;;;9.00;8.20;;;19.90;76.30;;;;;;5093253;28;20410;-46
2023/05/20 08:02:50;;;;;;;7.90;7.20;;;19.90;42.50;;;;;;5093745;28;20176;-49
2023/05/20 08:05:15;;;;;;;8.27;7.47;;;19.70;56.00;;;;;;5091950;28;20184;-46
2023/05/20 08:07:41;;;;;;;8.27;7.57;;;19.60;46.90;;;;;;5091758;28;20554;-47
2023/05/20 08:10:07;;;;;;;7.07;6.57;;;19.60;49.10;;;;;;5093924;28;20183;-49
2023/05/20 08:12:33;;;;;;;7.93;7.13;;;19.80;42.00;;;;;;5095318;28;20188;-49
2023/05/20 08:14:58;;;;;;;8.03;7.37;;;19.90;38.20;;;;;;5094147;28;20740;-48
2023/05/20 08:17:24;;;;;;;7.70;7.10;;;19.80;22.70;;;;;;5093607;28;20212;-49
2023/05/20 08:19:50;;;;;;;8.10;7.37;;;19.60;16.60;;;;;;5095866;28;20477;-48
2023/05/20 08:22:16;;;;;;;7.63;7.03;;;19.60;24.80;;;;;;5097698;28;20474;-47
2023/05/20 08:24:41;;;;;;;7.63;7.03;;;19.40;22.90;;;;;;5098534;28;20454;-46
2023/05/20 08:27:07;;;;;;;7.83;7.20;;;19.50;27.00;;;;;;5098593;28;20172;-46
2023/05/20 08:29:33;;;;;;;7.33;6.77;;;19.50;12.60;;;;;;5095878;28;20227;-48
2023/05/20 08:31:59;;;;;;;8.30;7.50;;;19.60;6.80;;;;;;5096368;28;20175;-47
2023/05/20 08:34:24;;;;;;;8.40;7.60;;;19.40;5.80;;;;;;5096298;28;20593;-46
2023/05/20 08:36:50;;;;;;;7.77;7.07;;;19.40;5.60;;;;;;5096478;28;20277;-46
2023/05/20 08:39:16;;;;;;;8.00;7.30;;;19.50;1.00;;;;;;5094728;28;20181;-48
2023/05/20 08:41:41;;;;;;;8.40;7.70;;;19.50;1.00;;;;;;5095506;28;20263;-48
2023/05/20 08:44:10;;;;;;;7.80;7.20;;;19.60;1.00;;;;;;5096435;28;20567;-46
2023/05/20 08:46:36;;;;;;;8.60;7.87;;;19.70;1.00;;;;;;5095942;28;20176;-46
2023/05/20 08:49:02;;;;;;;9.67;8.77;;;20.10;1.00;;;;;;5095395;28;20445;-47
2023/05/20 08:51:28;;;;;;;8.30;7.50;;;20.40;1.00;;;;;;5097490;28;20406;-49
2023/05/20 08:53:54;;;;;;;7.97;7.27;;;20.60;1.00;;;;;;5097281;28;20193;-48
2023/05/20 08:56:20;;;;;;;9.07;7.77;;;20.80;1.00;;;;;;5098306;28;20414;-48
2023/05/20 08:58:46;;;;;;;7.70;6.90;;;21.10;1.00;;;;;;5097997;28;20680;-47
2023/05/20 09:01:12;;;;;;;7.63;7.03;;;21.70;1.00;;;;;;5097910;28;20411;-45
2023/05/20 09:03:38;;;;;;;6.97;6.27;;;22.50;1.00;;;;;;5097550;28;20194;-49
2023/05/20 09:06:08;;;;;;;7.90;7.00;;;23.00;1.00;;;;;;5090016;28;20268;-49
2023/05/20 09:08:33;;;;;;;7.17;6.57;;;23.20;1.00;;;;;;5077922;28;20551;-48
2023/05/20 09:10:59;;;;;;;7.57;6.87;;;23.30;1.00;;;;;;5078484;28;20415;-48
2023/05/20 09:13:26;;;;;;;8.07;7.27;;;23.30;1.00;;;;;;5075595;28;20196;-48
2023/05/20 09:15:52;;;;;;;8.93;7.93;;;23.30;1.00;;;;;;5077640;28;20524;-45
2023/05/20 09:18:18;;;;;;;7.00;6.40;;;23.80;1.00;;;;;;5076669;28;20436;-46
2023/05/20 09:20:46;;;;;;;7.20;6.60;;;24.20;1.00;;;;;;5078016;28;20203;-48
2023/05/20 09:23:12;;;;;;;7.60;6.90;;;24.70;1.00;;;;;;5075919;28;20174;-46
2023/05/20 09:25:38;;;;;;;7.77;5.97;;;25.00;1.00;;;;;;5075930;28;20500;-44
2023/05/20 09:28:06;;;;;;;6.77;6.13;;;25.40;1.00;;;;;;5075471;28;20458;-47
2023/05/20 09:30:32;;;;;;;7.63;6.90;;;25.60;1.00;;;;;;5074927;28;20475;-49
2023/05/20 09:32:59;;;;;;;7.40;6.70;;;25.90;1.00;;;;;;5074815;28;20431;-46
2023/05/20 09:35:26;;;;;;;7.70;7.00;;;26.20;1.00;;;;;;5073670;28;20217;-46
2023/05/20 09:37:53;;;;;;;7.93;7.13;;;26.10;1.00;;;;;;5074213;28;20790;-46
2023/05/20 09:40:26;;;;;;;6.90;6.30;;;26.00;1.00;;;;;;5076788;28;20427;-46
2023/05/20 09:42:59;;;;;;;8.13;6.80;;;25.70;1.00;;;;;;5094293;28;20417;-44
2023/05/20 09:45:25;;;;;;;8.47;7.70;;;25.50;1.00;;;;;;5096435;28;20414;-46
2023/05/20 09:47:51;;;;;;;10.10;7.30;;;25.40;1.00;;;;;;5096572;28;20469;-46
2023/05/20 09:50:20;;;;;;;7.47;6.80;;;25.30;1.00;;;;;;5096503;28;20526;-48
2023/05/20 09:52:50;;;;;;;7.40;6.80;;;25.20;1.00;;;;;;5093976;28;20446;-45
2023/05/20 09:55:16;;;;;;;7.60;6.93;;;25.00;1.00;;;;;;5093710;28;20454;-48
2023/05/20 09:57:42;;;;;;;13.53;8.43;;;24.90;1.00;;;;;;5091748;28;20824;-45
2023/05/20 10:00:09;;;;;;;8.10;7.40;;;25.40;1.00;;;;;;5090673;28;20422;-46
2023/05/20 10:02:35;;;;;;;7.03;6.33;;;25.30;1.00;;;;;;5093019;28;20176;-46
2023/05/20 10:05:08;;;;;;;7.43;6.83;;;25.20;1.00;;;;;;5091548;28;20712;-49
2023/05/20 10:07:36;;;;;;;7.33;6.73;;;25.50;1.00;;;;;;5092547;28;20245;-46
2023/05/20 10:10:09;;;;;;;7.40;6.70;;;26.70;1.00;;;;;;5093161;28;20437;-50
2023/05/20 10:12:49;;;;;;;7.37;6.70;;;28.20;1.00;;;;;;5093849;28;20430;-49
2023/05/20 10:15:31;;;;;;;6.97;6.43;;;29.20;1.00;;;;;;5094802;28;20731;-49
2023/05/20 10:18:31;;;;;;;7.00;6.50;;;29.90;1.00;;;;;;5092876;28;20806;-48
2023/05/20 10:20:56;;;;;;;9.77;7.17;;;30.10;1.00;;;;;;5091445;28;20413;-50
2023/05/20 10:23:29;;;;;;;41.60;12.80;;;29.60;1.00;;;;;;5091735;28;20432;-46
2023/05/20 10:25:57;;;;;;;23.47;9.03;;;28.80;1.00;;;;;;5093638;28;20654;-47
2023/05/20 10:28:36;;;;;;;13.87;9.20;;;28.00;1.00;;;;;;5093697;28;20467;-47
2023/05/20 10:31:13;;;;;;;8.50;7.03;;;27.50;1.00;;;;;;5093325;28;20420;-50
2023/05/20 10:33:44;;;;;;;7.20;6.63;;;27.10;1.00;;;;;;5091682;28;20408;-46
2023/05/20 10:36:10;;;;;;;6.90;6.27;;;27.00;1.00;;;;;;5093345;28;20717;-42
2023/05/20 10:38:35;;;;;;;6.70;6.20;;;27.00;1.00;;;;;;5092258;28;20465;-49
2023/05/20 10:41:11;;;;;;;8.60;7.90;;;27.10;1.00;;;;;;5093316;28;20968;-47
2023/05/20 10:43:37;;;;;;;7.50;6.90;;;27.00;1.00;;;;;;5096246;28;20418;-47
2023/05/20 10:46:02;;;;;;;6.10;5.50;;;27.00;1.00;;;;;;5094626;28;20526;-49
2023/05/20 10:48:30;;;;;;;7.60;6.90;;;27.50;1.00;;;;;;5092534;28;20632;-49
2023/05/20 10:51:03;;;;;;;7.67;6.97;;;27.80;1.00;;;;;;5091885;28;20296;-48
2023/05/20 10:53:37;;;;;;;7.80;7.10;;;27.40;1.00;;;;;;5092870;28;20673;-50
2023/05/20 10:56:03;;;;;;;7.90;7.30;;;27.00;1.00;;;;;;5092831;28;20527;-53
2023/05/20 10:58:36;;;;;;;8.20;7.47;;;27.30;1.00;;;;;;5092541;28;20426;-51
2023/05/20 11:01:02;;;;;;;8.33;7.57;;;27.80;1.00;;;;;;5091767;28;20441;-49
2023/05/20 11:03:28;;;;;;;6.83;6.17;;;28.40;1.00;;;;;;5092133;28;20396;-50
2023/05/20 11:05:54;;;;;;;6.70;6.20;;;28.90;1.00;;;;;;5091629;28;20219;-49
2023/05/20 11:08:20;;;;;;;6.97;6.37;;;30.10;1.00;;;;;;5091595;28;20531;-47
2023/05/20 11:10:46;;;;;;;6.80;6.30;;;31.10;1.00;;;;;;5092754;28;20180;-48
2023/05/20 11:13:14;;;;;;;6.47;5.97;;;31.70;1.00;;;;;;5092353;28;20430;-51
2023/05/20 11:15:40;;;;;;;6.80;6.30;;;31.80;1.00;;;;;;5092111;28;20211;-48
2023/05/20 11:18:05;;;;;;;7.20;6.60;;;31.90;1.00;;;;;;5091896;28;20426;-48
2023/05/20 11:20:34;;;;;;;6.90;6.40;;;32.50;1.00;;;;;;5094038;28;20404;-49
2023/05/20 11:23:00;;;;;;;7.40;6.60;;;32.10;1.00;;;;;;5094915;28;20282;-49
2023/05/20 11:25:27;;;;;;;6.70;6.20;;;31.60;1.00;;;;;;5094907;28;20502;-49
2023/05/20 11:27:52;;;;;;;6.90;6.20;;;31.40;1.00;;;;;;5094497;28;20805;-47
2023/05/20 11:30:19;;;;;;;6.87;6.37;;;31.20;1.00;;;;;;5090364;28;20465;-48
2023/05/20 11:33:00;;;;;;;6.33;5.93;;;31.10;1.00;;;;;;5089948;28;20200;-50
2023/05/20 11:35:30;;;;;;;6.13;5.73;;;30.40;1.00;;;;;;5090045;28;20510;-49
2023/05/20 11:38:05;;;;;;;7.13;6.43;;;30.00;1.00;;;;;;5089327;28;20472;-49
2023/05/20 11:40:31;;;;;;;7.23;6.63;;;29.80;1.00;;;;;;5090196;28;20684;-49
2023/05/20 11:42:59;;;;;;;6.67;6.17;;;29.80;1.00;;;;;;5092332;28;20404;-48
2023/05/20 11:45:26;;;;;;;7.53;6.93;;;29.30;1.00;;;;;;5091696;28;21094;-49
2023/05/20 11:48:02;;;;;;;6.77;6.00;;;28.70;1.00;;;;;;5090284;28;20903;-48
2023/05/20 11:50:28;;;;;;;6.30;5.80;;;28.20;1.00;;;;;;5091515;28;20639;-48
2023/05/20 11:52:58;;;;;;;6.90;6.30;;;28.00;1.00;;;;;;5092692;28;20414;-51
2023/05/20 11:55:24;;;;;;;7.07;6.47;;;27.90;1.00;;;;;;5096164;28;20364;-48
2023/05/20 11:57:50;;;;;;;8.67;6.57;;;27.50;1.00;;;;;;5096746;28;20524;-49
2023/05/20 12:00:16;;;;;;;7.10;6.50;;;27.30;1.00;;;;;;5095593;28;20496;-49
2023/05/20 12:02:42;;;;;;;7.03;6.43;;;27.40;1.00;;;;;;5097398;28;21010;-52
2023/05/20 12:05:09;;;;;;;6.70;6.20;;;28.30;1.00;;;;;;5100339;28;20389;-49
2023/05/20 12:07:35;;;;;;;6.70;6.10;;;29.40;1.00;;;;;;5097591;28;20728;-52
2023/05/20 12:10:02;;;;;;;7.07;6.47;;;29.90;1.00;;;;;;5096356;28;20421;-50
2023/05/20 12:12:27;;;;;;;7.93;6.10;;;29.70;1.00;;;;;;5096417;28;20525;-53
2023/05/20 12:14:53;;;;;;;6.57;5.97;;;29.90;1.00;;;;;;5095788;28;20905;-52
2023/05/20 12:17:18;;;;;;;7.30;6.70;;;30.10;1.00;;;;;;5095496;28;20177;-51
2023/05/20 12:19:44;;;;;;;6.50;5.93;;;30.70;1.00;;;;;;5094411;28;20558;-47
2023/05/20 12:22:10;;;;;;;6.20;5.70;;;30.80;1.00;;;;;;5094753;28;20165;-51
2023/05/20 12:24:35;;;;;;;6.10;5.60;;;30.60;1.00;;;;;;5095747;28;20177;-49
2023/05/20 12:27:02;;;;;;;6.30;5.80;;;30.50;1.00;;;;;;5095423;28;20172;-50
2023/05/20 12:29:28;;;;;;;6.20;5.70;;;30.40;1.00;;;;;;5094643;28;20235;-49
2023/05/20 12:31:54;;;;;;;5.87;5.47;;;30.40;1.00;;;;;;5096527;28;20621;-51
2023/05/20 12:34:20;;;;;;;5.30;4.90;;;30.80;1.00;;;;;;5095819;28;20298;-50
2023/05/20 12:36:45;;;;;;;6.10;5.60;;;31.40;1.00;;;;;;5097672;28;20779;-48
2023/05/20 12:39:12;;;;;;;6.17;5.67;;;32.00;1.00;;;;;;5099393;28;20172;-48
2023/05/20 12:41:38;;;;;;;6.43;5.80;;;32.30;1.00;;;;;;5096189;28;20406;-50
2023/05/20 12:44:04;;;;;;;7.30;6.70;;;32.00;1.00;;;;;;5094730;28;20415;-47
2023/05/20 12:46:30;;;;;;;6.40;5.80;;;31.60;1.00;;;;;;5096716;28;20222;-48
2023/05/20 12:48:55;;;;;;;6.60;6.00;;;30.80;1.00;;;;;;5095029;28;20425;-49
2023/05/20 12:51:21;;;;;;;6.40;5.90;;;30.40;1.00;;;;;;5095069;28;20214;-54
2023/05/20 12:53:46;;;;;;;6.43;5.83;;;30.40;1.00;;;;;;5093962;28;20176;-48